Time;durP1;ratioP1;P1;durP2;ratioP2;P2;SDS_P1;SDS_P2;PMS_P1;PMS_P2;Temp;Humidity;BMP_temperature;BMP_pressure;BME280_temperature;BME280_humidity;BME280_pressure;Samples;Min_cycle;Max_cycle;Signal;HPM_P1;HPM_P2
2021/12/14 00:02:28;;;;;;;14.23;3.38;;;24.30;87.90;;;;;;5133779;27;20422;-86
2021/12/14 00:04:59;;;;;;;13.57;3.30;;;24.30;84.50;;;;;;5133571;27;20369;-86
2021/12/14 00:07:26;;;;;;;13.25;3.30;;;24.30;82.60;;;;;;5133570;27;20365;-87
2021/12/14 00:10:02;;;;;;;14.50;3.30;;;24.20;86.00;;;;;;5133290;27;20372;-87
2021/12/14 00:12:42;;;;;;;14.43;3.17;;;24.00;86.30;;;;;;5133463;27;20365;-84
2021/12/14 00:15:15;;;;;;;13.55;3.35;;;24.10;87.20;;;;;;5133604;27;20399;-87
2021/12/14 00:17:51;;;;;;;14.02;3.47;;;24.30;85.90;;;;;;5133120;27;20491;-86
2021/12/14 00:20:24;;;;;;;12.38;2.90;;;24.50;87.50;;;;;;5133313;27;20368;-86
2021/12/14 00:25:54;;;;;;;14.23;3.45;;;24.80;82.20;;;;;;5133134;27;20369;-86
2021/12/14 00:28:31;;;;;;;11.27;3.13;;;24.60;85.70;;;;;;5132922;27;20774;-86
2021/12/14 00:31:01;;;;;;;12.93;3.00;;;24.90;84.70;;;;;;5133254;27;20366;-87
2021/12/14 00:33:34;;;;;;;14.10;2.88;;;25.30;85.60;;;;;;5133127;27;20369;-87
2021/12/14 00:36:05;;;;;;;10.70;2.63;;;25.80;79.20;;;;;;5133077;27;20381;-86
2021/12/14 00:38:34;;;;;;;13.95;2.90;;;26.20;71.80;;;;;;5132678;27;20400;-86
2021/12/14 00:41:12;;;;;;;16.90;2.93;;;26.80;68.00;;;;;;5132747;27;20369;-87
2021/12/14 00:43:40;;;;;;;14.73;2.70;;;27.00;63.60;;;;;;5132609;27;20464;-86
2021/12/14 00:46:07;;;;;;;14.95;2.92;;;26.60;65.40;;;;;;5132807;27;20372;-87
2021/12/14 00:48:35;;;;;;;10.03;2.60;;;26.00;65.90;;;;;;5132633;27;20396;-86
2021/12/14 00:51:03;;;;;;;16.33;2.72;;;26.20;67.50;;;;;;5132469;27;20434;-86
2021/12/14 00:53:31;;;;;;;7.70;2.10;;;26.80;66.00;;;;;;5132509;27;20797;-86
2021/12/14 00:56:01;;;;;;;9.18;2.42;;;27.00;63.20;;;;;;5132372;27;20365;-86
2021/12/14 00:58:29;;;;;;;10.00;2.50;;;26.90;64.40;;;;;;5132518;27;20404;-86
2021/12/14 01:01:10;;;;;;;9.98;2.40;;;27.00;63.50;;;;;;5132281;27;20457;-86
2021/12/14 01:03:40;;;;;;;7.68;2.20;;;26.80;62.00;;;;;;5132334;27;20869;-87
2021/12/14 01:06:10;;;;;;;10.13;2.50;;;26.70;64.00;;;;;;5132276;27;20928;-87
2021/12/14 01:08:40;;;;;;;12.73;2.20;;;27.10;65.60;;;;;;5132324;27;20375;-88
2021/12/14 01:11:15;;;;;;;13.77;2.67;;;27.40;63.50;;;;;;5132037;27;20856;-87
2021/12/14 01:13:54;;;;;;;10.10;2.40;;;28.10;60.10;;;;;;5132330;27;20361;-87
2021/12/14 01:16:36;;;;;;;10.70;2.20;;;28.60;60.30;;;;;;5132111;27;21157;-87
2021/12/14 01:19:19;;;;;;;9.60;2.20;;;29.10;56.80;;;;;;5113421;27;20389;-87
2021/12/14 01:25:05;;;;;;;13.13;2.40;;;29.40;55.50;;;;;;5134136;27;20373;-87
2021/12/14 01:27:59;;;;;;;10.13;2.15;;;28.90;55.50;;;;;;5131003;27;20892;-87
2021/12/14 01:30:32;;;;;;;9.90;2.17;;;28.80;55.90;;;;;;5131694;27;20389;-87
2021/12/14 01:33:04;;;;;;;8.20;2.08;;;29.50;56.10;;;;;;5132025;27;20369;-87
2021/12/14 01:35:35;;;;;;;7.65;2.20;;;30.00;57.70;;;;;;5131556;27;20741;-88
2021/12/14 01:38:17;;;;;;;9.88;2.30;;;30.50;54.90;;;;;;5131622;27;20872;-87
2021/12/14 01:40:54;;;;;;;14.33;2.33;;;30.80;53.50;;;;;;5131463;27;20522;-88
2021/12/14 01:43:33;;;;;;;10.83;1.83;;;31.00;53.20;;;;;;5132106;27;20377;-88
2021/12/14 01:46:07;;;;;;;7.87;1.93;;;31.20;50.60;;;;;;5131643;27;20360;-87
2021/12/14 01:48:34;;;;;;;6.65;1.80;;;31.40;50.00;;;;;;5131584;27;20365;-87
2021/12/14 01:51:06;;;;;;;10.30;2.17;;;31.50;48.50;;;;;;5131202;27;20372;-87
2021/12/14 01:53:35;;;;;;;6.30;1.92;;;31.80;48.40;;;;;;5131606;27;20369;-87
2021/12/14 01:56:07;;;;;;;6.18;1.95;;;31.80;47.00;;;;;;5130554;27;20856;-87
2021/12/14 01:58:40;;;;;;;10.73;2.40;;;31.90;50.20;;;;;;5131375;27;20422;-84
2021/12/14 02:01:20;;;;;;;10.13;2.50;;;31.90;51.60;;;;;;5131404;27;20508;-87
2021/12/14 02:04:01;;;;;;;6.75;2.38;;;32.40;50.80;;;;;;5131710;27;20361;-86
2021/12/14 02:06:32;;;;;;;9.43;2.55;;;33.10;47.60;;;;;;5131268;27;20369;-87
2021/12/14 02:09:10;;;;;;;8.25;2.42;;;33.00;48.10;;;;;;5131396;27;20380;-86
2021/12/14 02:11:52;;;;;;;9.57;2.30;;;33.00;48.70;;;;;;5131101;27;20369;-87
2021/12/14 02:14:20;;;;;;;8.70;2.42;;;33.40;46.50;;;;;;5131311;27;20498;-88
2021/12/14 02:16:55;;;;;;;7.78;2.30;;;33.50;48.30;;;;;;5131141;28;20381;-87
2021/12/14 02:19:22;;;;;;;11.27;2.30;;;33.30;46.60;;;;;;5131396;27;20377;-87
2021/12/14 02:21:52;;;;;;;9.93;2.60;;;33.60;47.80;;;;;;5131237;27;20860;-88
2021/12/14 02:24:22;;;;;;;7.78;2.40;;;34.20;46.30;;;;;;5131368;27;20373;-87
2021/12/14 02:26:51;;;;;;;6.03;2.40;;;34.50;45.00;;;;;;5131046;28;20369;-83
2021/12/14 02:29:25;;;;;;;7.35;2.60;;;34.50;45.20;;;;;;5130920;27;20430;-87
2021/12/14 02:31:54;;;;;;;8.40;2.30;;;34.70;44.50;;;;;;5130925;28;20365;-87
2021/12/14 02:34:21;;;;;;;8.18;2.25;;;34.50;44.30;;;;;;5130737;27;20726;-86
2021/12/14 02:36:49;;;;;;;9.98;2.50;;;34.70;43.10;;;;;;5130767;27;20365;-87
2021/12/14 02:39:35;;;;;;;6.80;2.08;;;34.70;43.50;;;;;;5131429;27;20757;-86
2021/12/14 02:42:04;;;;;;;10.50;2.20;;;35.10;43.10;;;;;;5131151;27;20880;-87
2021/12/14 02:44:34;;;;;;;8.40;2.45;;;35.30;42.70;;;;;;5131037;27;20767;-87
2021/12/14 02:47:07;;;;;;;7.35;1.90;;;35.00;43.10;;;;;;5130992;27;20908;-88
2021/12/14 02:49:35;;;;;;;6.28;2.13;;;34.90;42.90;;;;;;5131065;28;20408;-84
2021/12/14 02:52:33;;;;;;;7.73;2.10;;;34.90;43.00;;;;;;5130711;27;20888;-84
2021/12/14 02:55:13;;;;;;;6.40;2.20;;;35.10;42.90;;;;;;5125296;28;20721;-87
2021/12/14 02:57:45;;;;;;;8.98;2.80;;;34.60;44.50;;;;;;5130927;27;20392;-84
2021/12/14 03:00:25;;;;;;;8.93;2.88;;;35.00;46.10;;;;;;5130802;27;20451;-86
2021/12/14 03:02:52;;;;;;;9.68;2.75;;;35.30;45.50;;;;;;5130808;27;20725;-86
2021/12/14 03:05:26;;;;;;;9.30;3.05;;;35.20;46.70;;;;;;5130987;28;20384;-86
2021/12/14 03:08:01;;;;;;;9.07;2.70;;;35.30;45.80;;;;;;5132937;27;20353;-88
2021/12/14 03:10:37;;;;;;;8.27;2.90;;;34.80;46.70;;;;;;5134447;27;20393;-87
2021/12/14 03:13:09;;;;;;;8.48;2.50;;;34.50;47.60;;;;;;5134381;27;20438;-88
2021/12/14 03:15:47;;;;;;;9.93;3.15;;;34.50;49.40;;;;;;5134391;27;20365;-86
2021/12/14 03:18:18;;;;;;;7.15;2.42;;;34.90;47.60;;;;;;5134242;27;20397;-86
2021/12/14 03:20:49;;;;;;;9.90;2.40;;;35.00;45.90;;;;;;5134497;27;20445;-85
2021/12/14 03:23:21;;;;;;;7.60;2.40;;;35.00;47.20;;;;;;5115754;27;20386;-86
2021/12/14 03:25:52;;;;;;;8.77;2.60;;;35.10;46.10;;;;;;5134137;27;20361;-86
2021/12/14 03:28:22;;;;;;;6.13;2.30;;;35.00;46.20;;;;;;5134245;27;20418;-86
2021/12/14 03:30:59;;;;;;;7.25;2.53;;;35.10;46.40;;;;;;5133874;27;20372;-86
2021/12/14 03:33:36;;;;;;;6.18;2.22;;;35.00;44.90;;;;;;5134104;27;20375;-85
2021/12/14 03:36:10;;;;;;;7.88;2.25;;;35.30;43.90;;;;;;5133763;27;20385;-86
2021/12/14 03:38:42;;;;;;;7.80;2.38;;;35.70;43.40;;;;;;5133944;27;20389;-86
2021/12/14 03:41:15;;;;;;;6.93;2.45;;;35.80;44.20;;;;;;5133994;27;20353;-87
2021/12/14 03:43:50;;;;;;;7.13;2.20;;;36.00;43.70;;;;;;5133846;27;20730;-86
2021/12/14 03:46:17;;;;;;;6.30;2.13;;;36.20;43.20;;;;;;5133673;27;20380;-86
2021/12/14 03:48:44;;;;;;;6.53;2.28;;;36.20;44.40;;;;;;5115131;27;20733;-88
2021/12/14 03:51:11;;;;;;;6.97;2.10;;;36.20;44.70;;;;;;5133526;27;20388;-86
2021/12/14 03:53:38;;;;;;;5.97;2.22;;;36.10;44.50;;;;;;5133584;27;20369;-86
2021/12/14 03:56:08;;;;;;;7.13;2.20;;;36.10;45.00;;;;;;5133886;27;20709;-86
2021/12/14 03:58:38;;;;;;;6.88;2.30;;;36.40;44.40;;;;;;5133293;27;20399;-86
2021/12/14 04:01:14;;;;;;;6.15;2.20;;;36.50;44.50;;;;;;5133616;27;20449;-84
2021/12/14 04:03:43;;;;;;;8.27;2.40;;;36.10;43.90;;;;;;5133370;27;20373;-85
2021/12/14 04:06:11;;;;;;;6.97;2.20;;;35.80;44.70;;;;;;5133369;27;20421;-85
2021/12/14 04:08:39;;;;;;;6.25;2.40;;;34.90;46.60;;;;;;5133371;27;20396;-86
2021/12/14 04:11:08;;;;;;;6.05;2.40;;;35.10;45.80;;;;;;5133100;27;20429;-86
2021/12/14 04:13:41;;;;;;;5.57;2.17;;;35.50;45.50;;;;;;5133317;27;20416;-86
2021/12/14 04:16:12;;;;;;;7.22;2.10;;;35.70;46.60;;;;;;5133176;27;20384;-85
2021/12/14 04:18:39;;;;;;;8.05;2.08;;;35.90;45.00;;;;;;5132846;27;20393;-84
2021/12/14 04:21:07;;;;;;;7.80;2.17;;;35.60;45.90;;;;;;5133980;27;20856;-85
2021/12/14 04:23:42;;;;;;;5.18;1.80;;;35.40;46.00;;;;;;5133060;27;20416;-85
2021/12/14 04:26:12;;;;;;;4.85;1.73;;;35.90;44.70;;;;;;5133053;27;20369;-86
2021/12/14 04:28:46;;;;;;;7.45;1.80;;;36.20;45.40;;;;;;5133001;27;20496;-86
2021/12/14 04:31:13;;;;;;;5.40;1.85;;;36.40;44.00;;;;;;5132957;27;20418;-86
2021/12/14 04:33:43;;;;;;;5.83;1.90;;;36.50;44.00;;;;;;5132869;27;20445;-86
2021/12/14 04:36:17;;;;;;;8.30;2.30;;;36.60;43.40;;;;;;5132980;27;20475;-87
2021/12/14 04:38:59;;;;;;;5.40;1.77;;;36.60;43.00;;;;;;5132730;27;20393;-86
2021/12/14 04:52:51;;;;;;;5.87;1.73;;;33.20;48.20;;;;;;5137252;27;20444;-85
2021/12/14 04:55:18;;;;;;;5.80;1.75;;;34.20;47.00;;;;;;5114496;27;20361;-86
2021/12/14 04:57:48;;;;;;;5.35;1.80;;;34.60;45.30;;;;;;5133231;27;20871;-87
2021/12/14 05:00:17;;;;;;;6.43;1.67;;;34.90;45.60;;;;;;5132769;27;20460;-86
2021/12/14 05:02:45;;;;;;;4.60;1.70;;;35.10;46.60;;;;;;5132559;27;20354;-86
2021/12/14 05:05:18;;;;;;;6.13;1.63;;;35.30;45.20;;;;;;5132321;27;20455;-86
2021/12/14 05:11:01;;;;;;;5.63;1.80;;;35.20;45.70;;;;;;5134172;27;20345;-86
2021/12/14 05:13:32;;;;;;;5.93;1.67;;;35.10;45.80;;;;;;5132100;27;20417;-86
2021/12/14 05:15:59;;;;;;;6.38;1.67;;;35.10;45.50;;;;;;5132009;27;20361;-86
2021/12/14 05:18:26;;;;;;;5.70;1.80;;;35.00;44.90;;;;;;5113501;27;20768;-85
2021/12/14 05:20:54;;;;;;;5.40;1.75;;;35.40;45.00;;;;;;5132170;27;20369;-87
2021/12/14 05:23:24;;;;;;;5.28;1.70;;;35.30;45.00;;;;;;5132120;27;20372;-86
2021/12/14 05:25:52;;;;;;;7.57;1.75;;;34.90;45.20;;;;;;5131847;27;20365;-89
2021/12/14 05:28:20;;;;;;;5.40;1.70;;;34.60;45.80;;;;;;5132145;27;20426;-87
2021/12/14 05:30:50;;;;;;;5.30;1.80;;;34.70;45.70;;;;;;5130412;27;20745;-86
2021/12/14 05:33:26;;;;;;;5.20;1.73;;;34.90;45.10;;;;;;5131980;27;20739;-86
2021/12/14 05:35:58;;;;;;;4.40;1.70;;;34.80;45.70;;;;;;5131253;27;20829;-86
2021/12/14 05:38:42;;;;;;;4.35;1.60;;;34.10;46.20;;;;;;5131470;27;20446;-92
2021/12/14 05:43:05;;;;;;;4.03;1.58;;;33.60;47.00;;;;;;5132429;27;20864;-86
2021/12/14 05:43:58;;;;;;;4.82;1.90;;;33.80;47.20;;;;;;5131548;27;20388;-86
2021/12/14 05:46:26;;;;;;;5.10;1.70;;;32.70;48.70;;;;;;5131243;27;20456;-86
2021/12/14 05:49:00;;;;;;;5.03;1.70;;;32.50;48.60;;;;;;5131216;27;20438;-84
2021/12/14 05:51:29;;;;;;;4.67;1.70;;;32.80;49.00;;;;;;5131206;27;20400;-84
2021/12/14 05:53:58;;;;;;;5.78;1.75;;;33.00;47.60;;;;;;5131354;27;20408;-84
2021/12/14 05:56:27;;;;;;;6.45;1.80;;;33.10;47.70;;;;;;5131392;27;20365;-83
2021/12/14 05:58:55;;;;;;;4.77;1.50;;;33.30;46.70;;;;;;5131437;27;20405;-84
2021/12/14 06:01:26;;;;;;;4.47;1.70;;;33.70;48.20;;;;;;5131317;27;20461;-85
2021/12/14 06:04:04;;;;;;;6.10;1.65;;;34.20;45.40;;;;;;5130694;27;20488;-84
2021/12/14 06:06:37;;;;;;;5.72;1.75;;;34.70;45.20;;;;;;5131397;27;20734;-84
2021/12/14 06:09:10;;;;;;;3.92;1.50;;;34.90;43.50;;;;;;5112829;28;20840;-84
2021/12/14 06:11:38;;;;;;;6.72;1.80;;;34.70;43.90;;;;;;5130697;28;20377;-84
2021/12/14 06:14:19;;;;;;;4.55;1.67;;;34.80;44.00;;;;;;5131118;27;20767;-83
2021/12/14 06:16:49;;;;;;;4.43;1.60;;;34.70;43.80;;;;;;5131021;28;20464;-85
2021/12/14 06:19:26;;;;;;;6.90;1.80;;;34.70;44.10;;;;;;5131353;28;20379;-86
2021/12/14 06:22:01;;;;;;;4.20;1.40;;;34.80;43.90;;;;;;5131205;28;20368;-85
2021/12/14 06:24:30;;;;;;;4.55;1.75;;;34.70;43.30;;;;;;5130990;27;20381;-84
2021/12/14 06:27:01;;;;;;;6.40;1.60;;;34.50;43.50;;;;;;5130375;27;20460;-84
2021/12/14 06:29:37;;;;;;;5.47;1.80;;;34.30;45.00;;;;;;5130727;27;20417;-84
2021/12/14 06:32:23;;;;;;;5.88;2.00;;;34.20;45.10;;;;;;5130154;27;20384;-84
2021/12/14 06:35:07;;;;;;;4.90;1.60;;;34.00;45.60;;;;;;5132960;27;20399;-86
2021/12/14 06:37:55;;;;;;;5.35;1.90;;;33.80;46.70;;;;;;5139663;27;20412;-84
2021/12/14 06:40:44;;;;;;;6.07;1.83;;;33.80;46.20;;;;;;5146079;27;20707;-85
2021/12/14 06:43:21;;;;;;;6.10;1.50;;;33.60;46.30;;;;;;5113242;28;20395;-85
2021/12/14 06:45:57;;;;;;;4.73;1.90;;;33.70;46.20;;;;;;5114489;28;20447;-85
2021/12/14 06:48:56;;;;;;;6.43;1.98;;;33.20;47.20;;;;;;5121482;27;20377;-85
2021/12/14 06:51:32;;;;;;;5.53;1.80;;;32.90;47.40;;;;;;5133796;27;21147;-86
2021/12/14 06:54:07;;;;;;;5.15;1.85;;;32.50;47.30;;;;;;5133960;27;20392;-84
2021/12/14 06:56:35;;;;;;;3.92;1.60;;;32.60;47.40;;;;;;5134792;27;20872;-85
2021/12/14 06:59:09;;;;;;;4.03;1.80;;;32.50;48.00;;;;;;5134679;27;20421;-82
2021/12/14 07:01:41;;;;;;;6.45;1.90;;;32.60;48.00;;;;;;5134792;27;20365;-84
2021/12/14 07:04:11;;;;;;;5.68;1.77;;;32.40;48.10;;;;;;5133622;27;20381;-83
2021/12/14 07:06:52;;;;;;;6.65;1.90;;;32.40;48.40;;;;;;5135167;27;20361;-83
2021/12/14 07:09:43;;;;;;;6.22;1.70;;;32.80;47.20;;;;;;5134503;27;20465;-84
2021/12/14 07:12:19;;;;;;;4.63;1.70;;;32.80;46.90;;;;;;5119464;27;20381;-84
2021/12/14 07:14:53;;;;;;;3.97;1.67;;;32.70;46.70;;;;;;5133795;27;20535;-86
2021/12/14 07:17:29;;;;;;;5.47;1.65;;;32.80;46.60;;;;;;5133837;27;20392;-85
2021/12/14 07:20:17;;;;;;;3.93;1.40;;;32.70;45.90;;;;;;5134249;27;20388;-84
2021/12/14 07:22:50;;;;;;;5.20;1.60;;;32.40;46.90;;;;;;5133866;27;20407;-90
2021/12/14 07:25:25;;;;;;;4.57;1.55;;;32.20;47.50;;;;;;5144894;27;20405;-95
2021/12/14 07:28:15;;;;;;;5.57;1.55;;;32.10;47.40;;;;;;5127691;27;20445;-95
2021/12/14 07:30:48;;;;;;;7.40;1.90;;;31.70;47.40;;;;;;5149845;27;20369;-93
2021/12/14 07:33:16;;;;;;;4.63;1.90;;;31.20;48.80;;;;;;5130353;27;20384;-91
2021/12/14 07:35:50;;;;;;;5.25;1.73;;;31.00;50.10;;;;;;5149765;27;20389;-90
2021/12/14 07:38:23;;;;;;;4.43;1.63;;;30.80;49.90;;;;;;5151235;27;20431;-90
2021/12/14 07:41:14;;;;;;;5.53;1.73;;;30.70;50.70;;;;;;5133099;27;20372;-90
2021/12/14 07:44:01;;;;;;;5.97;2.00;;;30.80;50.50;;;;;;5137367;27;20392;-89
2021/12/14 07:46:53;;;;;;;7.10;1.83;;;30.50;50.40;;;;;;5146438;27;20365;-94
2021/12/14 07:50:00;;;;;;;7.05;1.60;;;30.30;49.90;;;;;;5150958;27;20395;-95
2021/12/14 07:52:35;;;;;;;6.57;1.80;;;29.80;51.10;;;;;;5151611;27;20440;-89
2021/12/14 07:55:30;;;;;;;5.90;1.77;;;29.70;51.10;;;;;;5147151;27;20905;-90
2021/12/14 07:57:57;;;;;;;4.25;1.80;;;29.40;52.30;;;;;;5149019;27;20385;-96
2021/12/14 08:00:36;;;;;;;6.50;2.03;;;29.20;52.30;;;;;;5146588;27;20374;-95
2021/12/14 08:03:05;;;;;;;5.20;2.00;;;28.90;53.00;;;;;;5130925;27;20471;-93
2021/12/14 08:05:38;;;;;;;4.93;1.97;;;28.70;54.10;;;;;;5147888;27;20439;-91
2021/12/14 08:08:16;;;;;;;5.32;2.00;;;28.60;54.50;;;;;;5150935;27;20365;-94
2021/12/14 08:13:52;;;;;;;5.70;1.90;;;28.20;54.80;;;;;;5112514;27;20860;-89
2021/12/14 08:16:19;;;;;;;8.10;2.03;;;27.70;55.50;;;;;;5145648;27;20380;-94
2021/12/14 08:18:47;;;;;;;6.68;2.00;;;27.40;56.00;;;;;;5141371;27;20489;-92
2021/12/14 08:21:27;;;;;;;5.35;2.15;;;27.00;57.10;;;;;;5143782;27;20369;-96
2021/12/14 08:24:17;;;;;;;7.50;2.60;;;26.70;58.40;;;;;;5144176;27;20369;-88
2021/12/14 08:26:58;;;;;;;6.57;2.10;;;26.40;58.90;;;;;;5150040;27;20420;-89
2021/12/14 08:29:52;;;;;;;7.27;2.00;;;26.20;59.40;;;;;;5150532;27;20397;-85
2021/12/14 08:32:40;;;;;;;6.87;1.87;;;25.90;59.90;;;;;;5151221;27;20442;-89
2021/12/14 08:35:13;;;;;;;7.20;1.90;;;25.70;61.10;;;;;;5122333;28;20444;-94
2021/12/14 08:37:44;;;;;;;6.85;2.40;;;25.50;61.90;;;;;;5128180;28;20408;-87
2021/12/14 08:40:26;;;;;;;6.85;2.33;;;25.30;62.90;;;;;;5122350;28;20387;-85
2021/12/14 08:43:23;;;;;;;7.40;2.17;;;25.20;64.00;;;;;;5119399;28;20379;-95
2021/12/14 08:45:58;;;;;;;7.18;1.95;;;25.10;64.70;;;;;;5125128;28;20405;-92
2021/12/14 08:48:38;;;;;;;5.68;2.08;;;24.90;65.60;;;;;;5118157;28;20381;-91
2021/12/14 08:51:20;;;;;;;7.22;2.22;;;24.70;66.50;;;;;;5116339;28;20389;-93
2021/12/14 08:54:07;;;;;;;5.83;1.80;;;24.40;68.60;;;;;;5120389;28;20452;-95
2021/12/14 08:56:41;;;;;;;5.27;2.00;;;24.10;70.40;;;;;;5129407;28;20366;-95
2021/12/14 08:59:30;;;;;;;7.47;2.40;;;23.70;71.80;;;;;;5124659;28;20394;-95
2021/12/14 09:01:59;;;;;;;6.87;2.50;;;23.50;73.80;;;;;;5124341;28;20370;-89
2021/12/14 09:04:43;;;;;;;8.73;2.70;;;23.20;76.30;;;;;;5129066;28;20378;-86
2021/12/14 09:07:15;;;;;;;9.68;2.70;;;22.70;77.70;;;;;;5122644;28;20423;-93
2021/12/14 09:09:44;;;;;;;6.78;2.45;;;22.80;80.20;;;;;;5122653;28;20363;-91
2021/12/14 09:12:20;;;;;;;8.10;2.20;;;22.60;81.70;;;;;;5123958;28;20379;-90
2021/12/14 09:14:48;;;;;;;8.95;2.40;;;22.50;83.90;;;;;;5122473;28;20367;-93
2021/12/14 09:17:22;;;;;;;7.50;2.50;;;22.40;86.00;;;;;;5121164;28;20942;-92
2021/12/14 09:19:58;;;;;;;8.30;2.22;;;22.30;88.50;;;;;;5123085;28;20390;-91
2021/12/14 09:22:29;;;;;;;8.98;2.38;;;22.20;90.20;;;;;;5120068;28;20387;-88
2021/12/14 09:24:57;;;;;;;7.55;2.30;;;22.10;91.00;;;;;;5127755;28;20387;-95
2021/12/14 09:27:29;;;;;;;9.27;2.25;;;22.00;92.00;;;;;;5130211;28;20371;-90
2021/12/14 09:29:57;;;;;;;8.50;2.45;;;22.00;93.20;;;;;;5131457;28;20463;-96
2021/12/14 09:32:28;;;;;;;6.73;2.30;;;21.90;94.10;;;;;;5128689;28;20378;-92
2021/12/14 09:35:01;;;;;;;8.38;2.22;;;21.80;94.50;;;;;;5129130;27;20381;-92
2021/12/14 09:37:32;;;;;;;8.25;2.38;;;21.70;94.90;;;;;;5150824;27;20401;-90
2021/12/14 09:40:07;;;;;;;8.40;2.70;;;21.70;95.50;;;;;;5149933;27;20361;-95
2021/12/14 09:42:36;;;;;;;9.48;2.85;;;21.60;96.50;;;;;;5146056;27;20436;-95
2021/12/14 09:45:15;;;;;;;11.93;2.55;;;21.50;97.40;;;;;;5144723;27;20382;-91
2021/12/14 09:47:45;;;;;;;9.70;2.55;;;21.40;98.30;;;;;;5143385;27;20364;-95
2021/12/14 09:50:17;;;;;;;8.57;2.35;;;21.40;98.70;;;;;;5143478;27;20391;-96
2021/12/14 09:52:47;;;;;;;8.60;2.43;;;21.30;99.30;;;;;;5139177;27;20779;-95
2021/12/14 09:55:20;;;;;;;8.07;2.30;;;21.30;99.70;;;;;;5118776;27;20396;-95
2021/12/14 09:57:53;;;;;;;11.68;2.40;;;21.20;99.90;;;;;;5136247;27;20476;-94
2021/12/14 10:00:34;;;;;;;10.45;2.60;;;21.20;99.90;;;;;;5139367;27;20361;-96
2021/12/14 10:03:03;;;;;;;8.85;2.40;;;21.10;99.90;;;;;;5138319;27;20357;-96
2021/12/14 10:05:43;;;;;;;8.35;2.28;;;21.10;99.90;;;;;;5140601;27;20373;-96
2021/12/14 10:08:22;;;;;;;9.03;2.30;;;21.00;99.90;;;;;;5135908;27;20361;-95
2021/12/14 10:11:06;;;;;;;9.52;2.63;;;21.00;99.90;;;;;;5134529;27;20426;-93
2021/12/14 10:13:36;;;;;;;11.70;2.53;;;20.90;99.90;;;;;;5134702;27;20365;-95
2021/12/14 10:16:05;;;;;;;10.68;2.60;;;20.90;99.90;;;;;;5138532;27;20444;-92
2021/12/14 10:18:38;;;;;;;8.43;2.67;;;20.80;99.90;;;;;;5141587;27;20400;-95
2021/12/14 10:21:18;;;;;;;8.68;2.38;;;20.70;99.90;;;;;;5139001;27;20373;-92
2021/12/14 10:23:46;;;;;;;11.35;2.60;;;20.70;99.90;;;;;;5139509;27;20421;-93
2021/12/14 10:26:14;;;;;;;8.68;2.63;;;20.60;99.90;;;;;;5140266;27;20911;-94
2021/12/14 10:28:47;;;;;;;9.55;2.60;;;20.60;99.90;;;;;;5120263;27;20365;-92
2021/12/14 10:31:26;;;;;;;9.38;2.50;;;20.60;99.90;;;;;;5137727;27;20372;-91
2021/12/14 10:33:57;;;;;;;11.40;2.70;;;20.50;99.90;;;;;;5135662;27;20876;-88
2021/12/14 10:36:33;;;;;;;9.55;2.50;;;20.50;99.90;;;;;;5135576;27;20397;-89
2021/12/14 10:44:17;;;;;;;12.53;2.87;;;20.60;99.90;;;;;;5134606;27;20437;-89
2021/12/14 10:46:48;;;;;;;10.77;2.70;;;20.50;99.90;;;;;;5133749;27;20381;-89
2021/12/14 10:49:19;;;;;;;7.78;2.70;;;20.60;99.90;;;;;;5135396;27;20415;-92
2021/12/14 10:51:49;;;;;;;10.33;3.73;;;20.60;99.90;;;;;;5115508;28;20512;-86
2021/12/14 10:54:17;;;;;;;10.25;3.78;;;20.60;99.90;;;;;;5122339;27;20369;-89
2021/12/14 10:56:49;;;;;;;9.68;3.00;;;20.50;99.90;;;;;;5096682;28;20429;-84
2021/12/14 10:59:22;;;;;;;10.18;2.83;;;20.40;99.90;;;;;;5114271;28;20501;-85
2021/12/14 11:01:51;;;;;;;9.55;2.80;;;20.40;99.90;;;;;;5127284;27;20420;-88
2021/12/14 11:04:37;;;;;;;9.90;2.70;;;20.40;99.90;;;;;;5151229;27;20973;-88
2021/12/14 11:07:15;;;;;;;10.13;2.75;;;20.50;99.90;;;;;;5134769;27;20380;-88
2021/12/14 11:09:45;;;;;;;10.57;2.63;;;20.40;99.90;;;;;;5117787;27;20872;-90
2021/12/14 11:12:36;;;;;;;10.07;2.70;;;20.30;99.90;;;;;;5134141;27;20425;-90
2021/12/14 11:15:16;;;;;;;9.27;3.03;;;20.20;99.90;;;;;;5135299;27;20365;-89
2021/12/14 11:20:42;;;;;;;12.18;2.97;;;20.20;99.90;;;;;;5133850;27;20384;-87
2021/12/14 11:23:13;;;;;;;12.57;3.53;;;20.10;99.90;;;;;;5115148;27;21026;-88
2021/12/14 11:25:47;;;;;;;9.65;3.20;;;20.10;99.90;;;;;;5136283;27;20384;-92
2021/12/14 11:28:29;;;;;;;10.43;3.38;;;20.20;99.90;;;;;;5121079;27;20740;-90
2021/12/14 11:31:17;;;;;;;10.70;2.95;;;20.10;99.90;;;;;;5133804;27;20464;-87
2021/12/14 11:33:52;;;;;;;11.03;3.17;;;20.00;99.90;;;;;;5134892;27;20518;-91
2021/12/14 11:36:42;;;;;;;11.00;3.07;;;19.90;99.90;;;;;;5136166;27;20510;-82
2021/12/14 11:39:27;;;;;;;12.85;3.40;;;19.90;99.90;;;;;;5140583;27;20393;-89
2021/12/14 11:42:14;;;;;;;10.45;3.83;;;19.90;99.90;;;;;;5149933;27;20353;-91
2021/12/14 11:44:50;;;;;;;11.77;3.30;;;19.80;99.90;;;;;;5148374;27;20390;-85
2021/12/14 11:50:11;;;;;;;14.18;3.30;;;19.80;99.90;;;;;;5135487;27;20517;-89
2021/12/14 11:53:00;;;;;;;11.73;2.90;;;19.70;99.90;;;;;;5135321;27;20423;-90
2021/12/14 11:55:41;;;;;;;10.07;3.23;;;19.60;99.90;;;;;;5134895;27;20373;-89
2021/12/14 11:58:30;;;;;;;14.95;3.53;;;19.60;99.90;;;;;;5134002;27;20453;-90
2021/12/14 12:01:25;;;;;;;10.23;3.20;;;19.50;99.90;;;;;;5134290;27;20369;-90
2021/12/14 12:03:57;;;;;;;12.48;3.22;;;19.40;99.90;;;;;;5113569;28;20375;-87
2021/12/14 12:09:37;;;;;;;10.43;3.15;;;19.40;99.90;;;;;;5113488;28;20999;-88
2021/12/14 12:12:07;;;;;;;8.85;2.85;;;19.40;99.90;;;;;;5116473;27;20864;-91
2021/12/14 12:15:03;;;;;;;9.63;2.97;;;19.30;99.90;;;;;;5133675;27;20357;-92
2021/12/14 12:17:53;;;;;;;11.25;3.42;;;19.20;99.90;;;;;;5133810;27;20868;-92
2021/12/14 12:20:32;;;;;;;11.52;3.30;;;19.10;99.90;;;;;;5114819;27;20387;-87
2021/12/14 12:23:01;;;;;;;13.45;3.42;;;19.10;99.90;;;;;;5133390;27;20373;-89
2021/12/14 12:25:41;;;;;;;11.68;3.50;;;19.00;99.90;;;;;;5133400;27;20477;-90
2021/12/14 12:28:14;;;;;;;10.23;3.10;;;19.00;99.90;;;;;;5133782;27;20422;-91
2021/12/14 12:30:55;;;;;;;12.35;3.40;;;19.00;99.90;;;;;;5133412;27;20353;-91
2021/12/14 12:33:35;;;;;;;13.18;3.60;;;19.10;99.90;;;;;;5133507;27;20377;-89
2021/12/14 12:36:05;;;;;;;10.75;2.95;;;19.00;99.90;;;;;;5133188;27;20385;-91
2021/12/14 12:38:56;;;;;;;10.73;3.30;;;18.90;99.90;;;;;;5114717;27;20449;-88
2021/12/14 12:41:33;;;;;;;12.00;3.50;;;18.80;99.90;;;;;;5132723;27;20392;-91
2021/12/14 12:44:09;;;;;;;12.17;3.67;;;18.80;99.90;;;;;;5132910;27;20368;-92
2021/12/14 12:46:41;;;;;;;14.98;3.53;;;18.80;99.90;;;;;;5133383;27;20373;-93
2021/12/14 12:49:29;;;;;;;13.27;3.57;;;18.80;99.90;;;;;;5134611;27;20360;-88
2021/12/14 12:52:01;;;;;;;13.93;3.40;;;18.80;99.90;;;;;;5138362;27;20378;-92
2021/12/14 12:54:43;;;;;;;12.40;3.28;;;18.70;99.90;;;;;;5133058;27;20373;-89
2021/12/14 12:57:35;;;;;;;13.32;3.60;;;18.70;99.90;;;;;;5133217;27;20365;-91
2021/12/14 13:00:10;;;;;;;10.75;3.60;;;18.60;99.90;;;;;;5132696;27;20383;-91
2021/12/14 13:02:45;;;;;;;13.18;3.65;;;18.50;99.90;;;;;;5132833;27;20385;-91
2021/12/14 13:05:33;;;;;;;11.57;3.60;;;18.30;99.90;;;;;;5132565;27;20480;-92
2021/12/14 13:08:19;;;;;;;10.93;3.55;;;18.50;99.90;;;;;;5132870;27;20913;-91
2021/12/14 13:11:07;;;;;;;13.70;3.60;;;18.40;99.90;;;;;;5132458;27;20402;-91
2021/12/14 13:13:37;;;;;;;9.63;3.37;;;18.40;99.90;;;;;;5132531;27;20388;-91
2021/12/14 13:16:23;;;;;;;11.32;3.28;;;18.30;99.90;;;;;;5119085;27;20373;-90
2021/12/14 13:19:10;;;;;;;12.20;3.22;;;18.30;99.90;;;;;;5131884;27;20508;-91
2021/12/14 13:21:57;;;;;;;12.43;3.70;;;18.30;99.90;;;;;;5132587;27;20369;-91
2021/12/14 13:24:29;;;;;;;11.57;3.50;;;18.20;99.90;;;;;;5132181;27;20395;-90
2021/12/14 13:27:17;;;;;;;13.00;3.40;;;18.20;99.90;;;;;;5132549;27;20377;-90
2021/12/14 13:29:50;;;;;;;10.98;3.30;;;18.20;99.90;;;;;;5132007;27;20395;-91
2021/12/14 13:32:22;;;;;;;11.30;3.30;;;18.20;99.90;;;;;;5132429;27;20901;-92
2021/12/14 13:34:59;;;;;;;13.82;3.63;;;18.10;99.90;;;;;;5132211;27;20397;-88
2021/12/14 13:37:37;;;;;;;10.43;3.47;;;18.10;99.90;;;;;;5131766;27;20852;-91
2021/12/14 13:40:12;;;;;;;9.00;3.20;;;18.00;99.90;;;;;;5131605;27;20388;-92
2021/12/14 13:43:16;;;;;;;11.63;3.03;;;18.00;99.90;;;;;;5132588;27;20739;-90
2021/12/14 13:45:52;;;;;;;11.00;3.47;;;18.00;99.90;;;;;;5132303;27;20381;-92
2021/12/14 13:48:24;;;;;;;10.30;3.33;;;18.00;99.90;;;;;;5132975;27;20434;-91
2021/12/14 13:50:56;;;;;;;11.55;3.50;;;17.90;99.90;;;;;;5133660;27;20876;-90
2021/12/14 13:53:24;;;;;;;12.05;3.90;;;17.90;99.90;;;;;;5132715;27;20752;-92
2021/12/14 13:55:56;;;;;;;12.77;4.05;;;17.80;99.90;;;;;;5132061;27;20377;-91
2021/12/14 13:58:26;;;;;;;12.15;3.95;;;17.90;99.90;;;;;;5132746;27;20400;-93
2021/12/14 14:01:13;;;;;;;13.48;4.15;;;17.90;99.90;;;;;;5136206;27;20369;-91
2021/12/14 14:03:47;;;;;;;16.63;4.50;;;17.80;99.90;;;;;;5138223;27;20447;-88